createdAt,value
2022-11-29T00:00:17.313Z,39.30
2022-11-29T00:03:26.770Z,39.40
2022-11-29T00:06:35.171Z,39.20
2022-11-29T00:09:42.913Z,39.30
2022-11-29T00:12:50.997Z,39.40
2022-11-29T00:16:03.605Z,39.40
2022-11-29T00:19:13.836Z,39.30
2022-11-29T00:22:23.583Z,39.80
2022-11-29T00:25:31.689Z,39.90
2022-11-29T00:28:39.523Z,40.00
2022-11-29T00:31:47.552Z,40.10
2022-11-29T00:34:59.446Z,39.90
2022-11-29T00:38:07.668Z,40.20
2022-11-29T00:41:15.646Z,39.80
2022-11-29T00:44:23.663Z,40.10
2022-11-29T00:47:31.704Z,40.00
2022-11-29T00:50:41.142Z,39.90
2022-11-29T00:53:48.896Z,39.70
2022-11-29T00:56:57.044Z,39.60
2022-11-29T01:00:06.184Z,39.50
2022-11-29T01:03:14.091Z,39.90
2022-11-29T01:06:23.488Z,39.80
2022-11-29T01:09:31.342Z,39.80
2022-11-29T01:12:39.705Z,39.60
2022-11-29T01:15:47.525Z,39.40
2022-11-29T01:18:55.618Z,39.60
2022-11-29T01:22:05.030Z,39.80
2022-11-29T01:25:13.411Z,40.30
2022-11-29T01:28:21.492Z,40.10
2022-11-29T01:31:30.445Z,40.20
2022-11-29T01:34:38.739Z,39.80
2022-11-29T01:37:47.871Z,39.90
2022-11-29T01:41:00.212Z,39.70
2022-11-29T01:44:29.148Z,40.00
2022-11-29T01:47:39.172Z,40.00
2022-11-29T01:50:47.073Z,39.40
2022-11-29T01:53:55.052Z,39.60
2022-11-29T01:57:03.390Z,39.90
2022-11-29T02:00:13.101Z,39.50
2022-11-29T02:03:22.616Z,39.60
2022-11-29T02:06:30.680Z,39.60
2022-11-29T02:09:38.471Z,39.70
2022-11-29T02:12:53.444Z,39.40
2022-11-29T02:16:04.570Z,39.40
2022-11-29T02:19:21.937Z,39.70
2022-11-29T02:22:31.257Z,39.40
2022-11-29T02:25:47.796Z,39.40
2022-11-29T02:29:08.105Z,39.30
2022-11-29T02:32:40.662Z,39.30
2022-11-29T02:36:01.299Z,39.40
2022-11-29T02:39:15.831Z,39.20
2022-11-29T02:42:54.081Z,39.40
2022-11-29T02:46:34.611Z,39.40
2022-11-29T02:50:01.944Z,39.10
2022-11-29T02:53:12.888Z,39.00
2022-11-29T02:56:24.711Z,38.90
2022-11-29T02:59:41.923Z,39.20
2022-11-29T03:02:52.334Z,39.10
2022-11-29T03:06:05.442Z,39.10
2022-11-29T03:09:15.113Z,39.70
2022-11-29T03:12:27.386Z,39.40
2022-11-29T03:15:39.113Z,39.00
2022-11-29T03:18:55.878Z,38.90
2022-11-29T03:22:11.642Z,38.80
2022-11-29T03:25:22.474Z,38.80
2022-11-29T03:28:32.114Z,38.60
2022-11-29T03:31:42.439Z,38.50
2022-11-29T03:34:57.608Z,38.50
2022-11-29T03:38:10.538Z,38.40
2022-11-29T03:41:21.445Z,38.50
2022-11-29T03:44:32.036Z,38.50
2022-11-29T03:47:43.276Z,38.60
2022-11-29T03:50:53.004Z,38.60
2022-11-29T03:54:03.893Z,39.20
2022-11-29T03:57:11.973Z,39.00
2022-11-29T04:00:20.590Z,38.90
2022-11-29T04:03:39.105Z,39.10
2022-11-29T04:06:53.042Z,38.90
2022-11-29T04:10:17.319Z,39.20
2022-11-29T04:13:36.932Z,39.00
2022-11-29T04:17:13.593Z,39.10
2022-11-29T04:20:48.155Z,39.10
2022-11-29T04:24:22.456Z,39.10
2022-11-29T04:27:38.926Z,39.30
2022-11-29T04:30:51.879Z,39.40
2022-11-29T04:34:15.833Z,38.90
2022-11-29T04:37:48.493Z,39.10
2022-11-29T04:41:23.420Z,39.00
2022-11-29T04:44:59.710Z,39.20
2022-11-29T04:48:15.982Z,38.90
2022-11-29T04:51:31.754Z,39.60
2022-11-29T04:54:42.806Z,38.90
2022-11-29T04:57:53.129Z,39.30
2022-11-29T05:01:05.357Z,39.60
2022-11-29T05:04:17.127Z,39.40
2022-11-29T05:07:28.749Z,39.30
2022-11-29T05:10:40.592Z,39.30
2022-11-29T05:13:52.198Z,39.40
2022-11-29T05:17:09.769Z,39.00
2022-11-29T05:20:27.309Z,39.50
2022-11-29T05:23:41.927Z,39.40
2022-11-29T05:26:51.925Z,39.10
2022-11-29T05:30:02.471Z,39.10
2022-11-29T05:33:15.216Z,39.10
2022-11-29T05:36:25.646Z,39.30
2022-11-29T05:39:39.166Z,38.90
2022-11-29T05:42:55.766Z,38.70
2022-11-29T05:46:05.516Z,39.20
2022-11-29T05:49:21.489Z,39.30
2022-11-29T05:52:32.869Z,38.80
2022-11-29T05:55:42.566Z,39.20
2022-11-29T05:58:51.622Z,39.30
2022-11-29T06:02:05.057Z,39.20
2022-11-29T06:05:15.848Z,39.00
2022-11-29T06:08:29.344Z,39.40
2022-11-29T06:11:39.368Z,39.50
2022-11-29T06:14:55.413Z,39.30
2022-11-29T06:18:10.729Z,39.80
2022-11-29T06:21:23.903Z,39.10
2022-11-29T06:24:45.466Z,39.20
2022-11-29T06:28:00.190Z,38.70
2022-11-29T06:31:13.028Z,39.20
2022-11-29T06:34:25.084Z,38.60
2022-11-29T06:37:39.545Z,40.20
2022-11-29T06:40:47.958Z,40.10
2022-11-29T06:43:56.613Z,39.30
2022-11-29T06:47:07.126Z,39.50
2022-11-29T06:50:28.367Z,39.50
2022-11-29T06:53:39.925Z,39.20
2022-11-29T06:56:50.844Z,39.00
2022-11-29T07:00:04.516Z,39.00
2022-11-29T07:03:30.785Z,39.40
2022-11-29T07:06:39.009Z,39.60
2022-11-29T07:09:49.524Z,39.60
2022-11-29T07:12:58.058Z,39.70
2022-11-29T07:16:10.906Z,39.20
2022-11-29T07:19:21.519Z,40.40
2022-11-29T07:22:37.837Z,39.30
2022-11-29T07:25:52.357Z,39.50
2022-11-29T07:29:08.189Z,39.60
2022-11-29T07:32:18.027Z,39.40
2022-11-29T07:35:29.430Z,39.40
2022-11-29T07:38:47.094Z,39.40
2022-11-29T07:42:00.745Z,39.10
2022-11-29T07:45:12.775Z,39.60
2022-11-29T07:48:20.617Z,39.30
2022-11-29T07:51:28.608Z,39.20
2022-11-29T07:54:36.621Z,39.00
2022-11-29T07:57:45.891Z,39.00
2022-11-29T08:00:53.963Z,39.10
2022-11-29T08:04:02.066Z,39.00
2022-11-29T08:07:10.064Z,39.00
2022-11-29T08:10:18.224Z,38.70
2022-11-29T08:13:27.469Z,38.80
2022-11-29T08:16:35.633Z,39.00
2022-11-29T08:19:43.518Z,39.10
2022-11-29T08:22:58.404Z,38.60
2022-11-29T08:26:06.251Z,38.80
2022-11-29T08:29:15.789Z,39.00
2022-11-29T08:32:23.838Z,39.00
2022-11-29T08:35:32.066Z,38.80
2022-11-29T08:38:40.204Z,39.10
2022-11-29T08:41:49.621Z,38.80
2022-11-29T08:44:58.905Z,38.90
2022-11-29T08:48:07.828Z,38.80
2022-11-29T08:51:15.795Z,39.10
2022-11-29T08:54:23.862Z,38.70
2022-11-29T08:57:39.698Z,39.20
2022-11-29T09:00:49.844Z,39.10
2022-11-29T09:04:02.475Z,38.80
2022-11-29T09:07:10.294Z,38.90
2022-11-29T09:10:18.399Z,38.60
2022-11-29T09:13:26.400Z,39.00
2022-11-29T09:16:37.233Z,38.90
2022-11-29T09:19:45.409Z,38.90
2022-11-29T09:22:53.335Z,38.90
2022-11-29T09:26:01.366Z,39.30
2022-11-29T09:29:09.637Z,39.60
2022-11-29T09:32:19.155Z,39.40
2022-11-29T09:35:27.242Z,39.70
2022-11-29T09:38:35.145Z,39.90
2022-11-29T09:42:17.188Z,39.70
2022-11-29T09:45:30.018Z,39.50
2022-11-29T09:49:07.130Z,39.60
2022-11-29T09:52:17.435Z,40.10
2022-11-29T09:55:46.165Z,39.00
2022-11-29T09:59:02.181Z,38.60
2022-11-29T10:02:38.935Z,38.80
2022-11-29T10:05:50.208Z,38.50
2022-11-29T10:09:00.195Z,38.50
2022-11-29T10:12:13.568Z,38.50
2022-11-29T10:15:22.881Z,38.40
2022-11-29T10:18:33.244Z,38.40
2022-11-29T10:21:44.361Z,38.50
2022-11-29T10:24:54.561Z,38.50
2022-11-29T10:28:02.917Z,38.90
2022-11-29T10:31:17.457Z,39.00
2022-11-29T10:34:26.072Z,38.80
2022-11-29T10:37:35.149Z,38.60
2022-11-29T10:40:43.923Z,39.10
2022-11-29T10:43:52.000Z,39.70
2022-11-29T10:47:00.179Z,39.40
2022-11-29T10:50:10.599Z,39.80
2022-11-29T10:53:20.846Z,39.60
2022-11-29T10:56:31.123Z,39.30
2022-11-29T10:59:38.804Z,39.50
2022-11-29T11:02:46.922Z,39.50
2022-11-29T11:05:59.835Z,39.30
2022-11-29T11:09:15.204Z,39.60
2022-11-29T11:12:24.344Z,39.50
2022-11-29T11:15:32.756Z,39.70
2022-11-29T11:18:40.615Z,39.30
2022-11-29T11:21:48.537Z,39.10
2022-11-29T11:24:59.938Z,39.30
2022-11-29T11:28:17.975Z,38.80
2022-11-29T11:31:30.820Z,39.00
2022-11-29T11:34:38.829Z,38.80
2022-11-29T11:37:48.601Z,39.20
2022-11-29T11:41:21.542Z,38.90
2022-11-29T11:44:46.926Z,39.10
2022-11-29T11:47:57.166Z,38.80
2022-11-29T11:51:05.143Z,39.10
2022-11-29T11:54:14.825Z,39.50
2022-11-29T11:57:24.090Z,39.60
2022-11-29T12:01:03.596Z,39.00
2022-11-29T12:04:13.652Z,38.90
2022-11-29T12:07:38.719Z,38.70
2022-11-29T12:10:51.440Z,38.80
2022-11-29T12:14:00.687Z,39.20
2022-11-29T12:17:20.136Z,39.00
2022-11-29T12:20:28.862Z,39.00
2022-11-29T12:23:40.475Z,39.10
2022-11-29T12:26:57.066Z,39.10
2022-11-29T12:30:13.008Z,39.70
2022-11-29T12:33:26.587Z,39.40
2022-11-29T12:36:38.120Z,39.30
2022-11-29T12:39:52.397Z,39.20
2022-11-29T12:43:03.286Z,39.20
2022-11-29T12:46:14.885Z,39.30
2022-11-29T12:49:25.130Z,39.20
2022-11-29T12:52:37.663Z,38.90
2022-11-29T12:55:50.105Z,38.90
2022-11-29T12:59:05.344Z,38.70
2022-11-29T13:02:22.492Z,39.30
2022-11-29T13:05:42.802Z,39.20
2022-11-29T13:09:11.948Z,38.90
2022-11-29T13:12:22.418Z,39.10
2022-11-29T13:15:36.318Z,39.10
2022-11-29T13:18:48.413Z,38.90
2022-11-29T13:21:59.444Z,39.50
2022-11-29T13:25:13.112Z,39.40
2022-11-29T13:28:23.880Z,39.30
2022-11-29T13:31:32.125Z,39.20
2022-11-29T13:34:43.416Z,38.90
2022-11-29T13:37:55.357Z,38.80
2022-11-29T13:41:05.725Z,38.90
2022-11-29T13:44:17.093Z,38.70
2022-11-29T13:47:25.045Z,38.50
2022-11-29T13:50:42.035Z,38.60
2022-11-29T13:53:49.956Z,38.30
2022-11-29T13:57:05.020Z,38.40
2022-11-29T14:00:33.403Z,38.30
2022-11-29T14:03:41.682Z,38.30
2022-11-29T14:06:51.193Z,38.40
2022-11-29T14:09:59.613Z,38.50
2022-11-29T14:13:11.161Z,38.80
2022-11-29T14:16:20.639Z,38.70
2022-11-29T14:19:33.342Z,38.70
2022-11-29T14:23:13.516Z,38.80
2022-11-29T14:26:29.152Z,38.80
2022-11-29T14:30:04.845Z,38.90
2022-11-29T14:33:22.217Z,39.40
2022-11-29T14:36:39.408Z,39.40
2022-11-29T14:39:49.015Z,39.10
2022-11-29T14:42:57.295Z,39.20
2022-11-29T14:46:09.351Z,39.50
2022-11-29T14:49:24.895Z,39.90
2022-11-29T14:52:33.573Z,39.80
2022-11-29T14:55:43.163Z,40.10
2022-11-29T14:59:01.743Z,39.60
2022-11-29T15:02:19.012Z,39.80
2022-11-29T15:05:30.402Z,39.30
2022-11-29T15:08:41.003Z,39.80
2022-11-29T15:11:51.588Z,39.30
2022-11-29T15:15:05.495Z,39.10
2022-11-29T15:18:26.579Z,39.00
2022-11-29T15:21:36.819Z,39.40
2022-11-29T15:24:52.023Z,40.00
2022-11-29T15:28:01.957Z,39.50
2022-11-29T15:31:11.241Z,39.40
2022-11-29T15:34:20.992Z,39.50
2022-11-29T15:37:42.708Z,39.20
2022-11-29T15:40:53.251Z,39.10
2022-11-29T15:44:05.608Z,38.80
2022-11-29T15:47:17.258Z,39.40
2022-11-29T15:50:26.788Z,39.10
2022-11-29T15:53:37.336Z,39.30
2022-11-29T15:56:45.922Z,39.10
2022-11-29T15:59:56.502Z,39.00
2022-11-29T16:03:05.426Z,39.00
2022-11-29T16:06:21.995Z,38.70
2022-11-29T16:09:33.449Z,39.00
2022-11-29T16:12:52.586Z,39.00
2022-11-29T16:16:11.726Z,39.20
2022-11-29T16:19:23.808Z,39.40
2022-11-29T16:22:32.498Z,39.00
2022-11-29T16:25:55.557Z,37.70
2022-11-29T16:29:03.473Z,40.70
2022-11-29T16:32:19.663Z,39.70
2022-11-29T16:35:08.354Z,39.60
2022-11-29T16:37:55.839Z,39.00
2022-11-29T16:40:43.364Z,39.00
2022-11-29T16:43:48.460Z,39.00
2022-11-29T16:46:39.622Z,38.80
2022-11-29T16:49:35.544Z,38.60
2022-11-29T16:52:27.658Z,38.60
2022-11-29T16:55:16.167Z,38.50
2022-11-29T16:58:03.836Z,38.50
2022-11-29T17:00:51.547Z,38.40
2022-11-29T17:03:39.328Z,38.50
2022-11-29T17:06:28.337Z,38.60
2022-11-29T17:09:21.446Z,39.00
2022-11-29T17:12:12.439Z,39.00
2022-11-29T17:15:00.257Z,39.20
2022-11-29T17:17:48.039Z,38.80
2022-11-29T17:20:35.609Z,39.00
2022-11-29T17:23:24.730Z,38.90
2022-11-29T17:26:12.565Z,39.00
2022-11-29T17:29:00.536Z,39.00
2022-11-29T17:31:50.384Z,38.90
2022-11-29T17:34:38.463Z,39.10
2022-11-29T17:37:26.077Z,39.00
2022-11-29T17:40:15.779Z,39.30
2022-11-29T17:43:03.724Z,39.70
2022-11-29T17:45:51.259Z,39.00
2022-11-29T17:48:39.503Z,39.00
2022-11-29T17:54:36.050Z,38.70
2022-11-29T17:57:25.069Z,38.90
2022-11-29T18:00:15.167Z,39.80
2022-11-29T18:03:03.427Z,39.10
2022-11-29T18:05:51.381Z,38.80
2022-11-29T18:08:39.563Z,39.10
2022-11-29T18:11:28.349Z,39.00
2022-11-29T18:14:19.017Z,39.00
2022-11-29T18:17:06.696Z,39.40
2022-11-29T18:19:54.597Z,39.00
2022-11-29T18:22:42.269Z,39.00
2022-11-29T18:25:38.832Z,39.80
2022-11-29T18:28:27.649Z,39.10
2022-11-29T18:31:36.608Z,39.00
2022-11-29T18:34:44.731Z,38.90
2022-11-29T18:38:16.942Z,38.90
2022-11-29T18:41:23.913Z,38.90
2022-11-29T18:44:31.976Z,39.00
2022-11-29T18:47:41.435Z,38.80
2022-11-29T18:50:49.609Z,38.90
2022-11-29T18:53:58.153Z,38.60
2022-11-29T18:57:06.512Z,38.80
2022-11-29T19:00:15.505Z,39.10
2022-11-29T19:03:24.997Z,39.10
2022-11-29T19:06:39.435Z,39.50
2022-11-29T19:09:47.935Z,38.80
2022-11-29T19:12:56.127Z,39.30
2022-11-29T19:16:04.682Z,40.00
2022-11-29T19:19:14.161Z,39.00
2022-11-29T19:22:22.377Z,38.80
2022-11-29T19:25:30.612Z,38.90
2022-11-29T19:28:38.933Z,39.10
2022-11-29T19:31:47.193Z,39.60
2022-11-29T19:34:56.652Z,39.10
2022-11-29T19:38:04.920Z,38.90
2022-11-29T19:41:13.431Z,39.10
2022-11-29T19:44:23.012Z,38.80
2022-11-29T19:47:34.357Z,38.80
2022-11-29T19:50:43.545Z,39.30
2022-11-29T19:53:52.994Z,39.00
2022-11-29T19:57:02.451Z,39.20
2022-11-29T20:00:11.162Z,39.50
2022-11-29T20:03:21.517Z,39.10
2022-11-29T20:06:31.745Z,39.50
2022-11-29T20:09:39.644Z,39.30
2022-11-29T20:12:47.486Z,39.10
2022-11-29T20:15:55.609Z,38.80
2022-11-29T20:19:03.702Z,39.40
2022-11-29T20:22:13.108Z,39.10
2022-11-29T20:25:21.241Z,39.40
2022-11-29T20:28:29.245Z,39.40
2022-11-29T20:31:38.362Z,39.20
2022-11-29T20:34:46.849Z,39.20
2022-11-29T20:38:07.656Z,38.80
2022-11-29T20:41:02.420Z,38.90
2022-11-29T20:43:53.584Z,39.20
2022-11-29T20:46:41.686Z,39.00
2022-11-29T20:49:30.078Z,39.00
2022-11-29T20:52:26.235Z,39.10
2022-11-29T20:55:15.924Z,39.20
2022-11-29T20:58:03.356Z,38.70
2022-11-29T21:00:51.024Z,39.10
2022-11-29T21:03:38.780Z,38.70
2022-11-29T21:06:26.947Z,38.70
2022-11-29T21:09:14.654Z,39.10
2022-11-29T21:12:04.763Z,38.60
2022-11-29T21:14:52.868Z,38.90
2022-11-29T21:17:41.332Z,38.80
2022-11-29T21:20:29.322Z,38.70
2022-11-29T21:23:20.718Z,39.10
2022-11-29T21:26:11.339Z,39.30
2022-11-29T21:29:06.708Z,38.90
2022-11-29T21:31:55.121Z,38.90
2022-11-29T21:34:43.022Z,38.70
2022-11-29T21:37:31.797Z,39.40
2022-11-29T21:40:19.970Z,39.20
2022-11-29T21:43:07.824Z,38.90
2022-11-29T21:45:57.441Z,38.90
2022-11-29T21:48:45.359Z,39.50
2022-11-29T21:51:33.006Z,39.40
2022-11-29T21:54:20.850Z,39.70
2022-11-29T21:57:08.652Z,39.00
2022-11-29T21:59:56.671Z,38.90
2022-11-29T22:02:46.238Z,39.40
2022-11-29T22:05:34.471Z,39.40
2022-11-29T22:08:22.044Z,40.10
2022-11-29T22:11:10.595Z,38.90
2022-11-29T22:14:18.034Z,39.00
2022-11-29T22:17:05.826Z,39.30
2022-11-29T22:19:56.251Z,39.50
2022-11-29T22:22:44.024Z,39.00
2022-11-29T22:25:31.647Z,38.90
2022-11-29T22:28:19.515Z,39.00
2022-11-29T22:31:08.913Z,38.70
2022-11-29T22:33:56.709Z,39.00
2022-11-29T22:36:45.695Z,38.80
2022-11-29T22:39:33.044Z,39.10
2022-11-29T22:42:20.579Z,38.80
2022-11-29T22:45:09.727Z,39.30
2022-11-29T22:47:57.474Z,39.10
2022-11-29T22:50:45.089Z,39.00
2022-11-29T22:53:34.404Z,39.00
2022-11-29T22:56:22.778Z,38.80
2022-11-29T22:59:10.508Z,39.20
2022-11-29T23:01:58.272Z,38.80
2022-11-29T23:05:05.254Z,39.10
2022-11-29T23:08:13.181Z,39.10
2022-11-29T23:11:23.191Z,39.10
2022-11-29T23:14:31.229Z,39.00
2022-11-29T23:17:39.021Z,39.00
2022-11-29T23:20:46.935Z,38.90
2022-11-29T23:23:56.770Z,38.80
2022-11-29T23:27:06.192Z,39.00
2022-11-29T23:30:15.367Z,39.10
2022-11-29T23:33:23.581Z,39.00
2022-11-29T23:36:31.415Z,38.90
2022-11-29T23:39:39.440Z,38.60
2022-11-29T23:42:53.269Z,38.80
2022-11-29T23:46:01.143Z,39.20
2022-11-29T23:49:09.068Z,38.80
2022-11-29T23:52:17.181Z,39.50
2022-11-29T23:55:25.892Z,39.50
2022-11-29T23:58:35.309Z,39.10
